sensor_id;sensor_type;location;lat;lon;timestamp;P1;durP1;ratioP1;P2;durP2;ratioP2
74229;SDS011;62589;12.568;99.958;2023-05-18T00:01:11;11.00;;;8.20;;
74229;SDS011;62589;12.568;99.958;2023-05-18T00:03:39;10.48;;;8.93;;
74229;SDS011;62589;12.568;99.958;2023-05-18T00:06:06;10.65;;;8.77;;
74229;SDS011;62589;12.568;99.958;2023-05-18T00:08:33;12.82;;;8.23;;
74229;SDS011;62589;12.568;99.958;2023-05-18T00:11:01;11.52;;;8.20;;
74229;SDS011;62589;12.568;99.958;2023-05-18T00:13:29;10.23;;;8.10;;
74229;SDS011;62589;12.568;99.958;2023-05-18T00:15:55;11.98;;;8.15;;
74229;SDS011;62589;12.568;99.958;2023-05-18T00:18:22;10.57;;;8.05;;
74229;SDS011;62589;12.568;99.958;2023-05-18T00:20:51;10.82;;;7.55;;
74229;SDS011;62589;12.568;99.958;2023-05-18T00:23:26;10.75;;;8.07;;
74229;SDS011;62589;12.568;99.958;2023-05-18T00:25:55;13.18;;;8.65;;
74229;SDS011;62589;12.568;99.958;2023-05-18T00:28:26;11.25;;;7.65;;
74229;SDS011;62589;12.568;99.958;2023-05-18T00:30:53;10.60;;;7.43;;
74229;SDS011;62589;12.568;99.958;2023-05-18T00:33:20;9.02;;;7.57;;
74229;SDS011;62589;12.568;99.958;2023-05-18T00:35:47;10.77;;;8.30;;
74229;SDS011;62589;12.568;99.958;2023-05-18T00:38:14;10.00;;;7.30;;
74229;SDS011;62589;12.568;99.958;2023-05-18T00:40:40;11.15;;;7.03;;
74229;SDS011;62589;12.568;99.958;2023-05-18T00:43:07;10.05;;;7.43;;
74229;SDS011;62589;12.568;99.958;2023-05-18T00:45:33;9.88;;;6.70;;
74229;SDS011;62589;12.568;99.958;2023-05-18T00:48:00;12.88;;;7.13;;
74229;SDS011;62589;12.568;99.958;2023-05-18T00:50:27;10.13;;;6.47;;
74229;SDS011;62589;12.568;99.958;2023-05-18T00:52:53;10.45;;;6.93;;
74229;SDS011;62589;12.568;99.958;2023-05-18T00:55:20;8.93;;;6.97;;
74229;SDS011;62589;12.568;99.958;2023-05-18T00:57:46;11.60;;;7.40;;
74229;SDS011;62589;12.568;99.958;2023-05-18T01:00:14;9.13;;;6.93;;
74229;SDS011;62589;12.568;99.958;2023-05-18T01:02:41;10.38;;;6.32;;
74229;SDS011;62589;12.568;99.958;2023-05-18T01:05:10;10.40;;;6.53;;
74229;SDS011;62589;12.568;99.958;2023-05-18T01:07:37;9.07;;;6.25;;
74229;SDS011;62589;12.568;99.958;2023-05-18T01:10:07;9.30;;;6.38;;
74229;SDS011;62589;12.568;99.958;2023-05-18T01:12:53;8.75;;;6.22;;
74229;SDS011;62589;12.568;99.958;2023-05-18T01:15:28;9.80;;;5.82;;
74229;SDS011;62589;12.568;99.958;2023-05-18T01:18:10;7.25;;;6.28;;
74229;SDS011;62589;12.568;99.958;2023-05-18T01:21:10;9.75;;;6.40;;
74229;SDS011;62589;12.568;99.958;2023-05-18T01:24:13;12.43;;;6.30;;
74229;SDS011;62589;12.568;99.958;2023-05-18T01:26:56;8.82;;;6.25;;
74229;SDS011;62589;12.568;99.958;2023-05-18T01:29:26;11.43;;;6.38;;
74229;SDS011;62589;12.568;99.958;2023-05-18T01:31:56;11.13;;;6.68;;
74229;SDS011;62589;12.568;99.958;2023-05-18T01:34:23;8.25;;;6.13;;
74229;SDS011;62589;12.568;99.958;2023-05-18T01:36:49;10.07;;;6.38;;
74229;SDS011;62589;12.568;99.958;2023-05-18T01:39:16;6.95;;;5.75;;
74229;SDS011;62589;12.568;99.958;2023-05-18T01:41:55;8.45;;;5.45;;
74229;SDS011;62589;12.568;99.958;2023-05-18T01:44:29;7.93;;;5.95;;
74229;SDS011;62589;12.568;99.958;2023-05-18T01:47:09;7.95;;;5.65;;
74229;SDS011;62589;12.568;99.958;2023-05-18T01:49:44;9.80;;;5.45;;
74229;SDS011;62589;12.568;99.958;2023-05-18T01:52:27;11.77;;;6.47;;
74229;SDS011;62589;12.568;99.958;2023-05-18T01:55:02;7.22;;;5.90;;
74229;SDS011;62589;12.568;99.958;2023-05-18T01:57:30;7.45;;;5.68;;
74229;SDS011;62589;12.568;99.958;2023-05-18T01:59:58;11.85;;;6.45;;
74229;SDS011;62589;12.568;99.958;2023-05-18T02:02:25;6.43;;;5.50;;
74229;SDS011;62589;12.568;99.958;2023-05-18T02:04:53;7.53;;;5.40;;
74229;SDS011;62589;12.568;99.958;2023-05-18T02:07:20;7.50;;;5.53;;
74229;SDS011;62589;12.568;99.958;2023-05-18T02:09:47;6.22;;;5.50;;
74229;SDS011;62589;12.568;99.958;2023-05-18T02:12:13;8.20;;;5.32;;
74229;SDS011;62589;12.568;99.958;2023-05-18T02:14:40;7.53;;;5.20;;
74229;SDS011;62589;12.568;99.958;2023-05-18T02:17:06;9.80;;;5.22;;
74229;SDS011;62589;12.568;99.958;2023-05-18T02:19:33;10.07;;;5.18;;
74229;SDS011;62589;12.568;99.958;2023-05-18T02:22:06;7.25;;;5.72;;
74229;SDS011;62589;12.568;99.958;2023-05-18T02:24:32;9.63;;;5.20;;
74229;SDS011;62589;12.568;99.958;2023-05-18T02:26:59;7.18;;;5.35;;
74229;SDS011;62589;12.568;99.958;2023-05-18T02:29:26;7.72;;;4.88;;
74229;SDS011;62589;12.568;99.958;2023-05-18T02:31:52;8.35;;;4.53;;
74229;SDS011;62589;12.568;99.958;2023-05-18T02:34:19;8.90;;;5.60;;
74229;SDS011;62589;12.568;99.958;2023-05-18T02:36:47;8.55;;;5.55;;
74229;SDS011;62589;12.568;99.958;2023-05-18T02:39:13;7.55;;;5.25;;
74229;SDS011;62589;12.568;99.958;2023-05-18T02:41:40;6.35;;;5.75;;
74229;SDS011;62589;12.568;99.958;2023-05-18T02:44:06;7.05;;;5.80;;
74229;SDS011;62589;12.568;99.958;2023-05-18T02:46:33;7.40;;;5.35;;
74229;SDS011;62589;12.568;99.958;2023-05-18T02:48:59;7.05;;;5.40;;
74229;SDS011;62589;12.568;99.958;2023-05-18T02:51:26;9.45;;;5.30;;
74229;SDS011;62589;12.568;99.958;2023-05-18T02:53:52;9.85;;;5.57;;
74229;SDS011;62589;12.568;99.958;2023-05-18T02:56:19;8.70;;;5.55;;
74229;SDS011;62589;12.568;99.958;2023-05-18T02:58:45;7.93;;;5.55;;
74229;SDS011;62589;12.568;99.958;2023-05-18T03:01:12;9.48;;;5.35;;
74229;SDS011;62589;12.568;99.958;2023-05-18T03:03:41;5.78;;;4.82;;
74229;SDS011;62589;12.568;99.958;2023-05-18T03:06:08;8.82;;;4.95;;
74229;SDS011;62589;12.568;99.958;2023-05-18T03:08:34;6.50;;;5.13;;
74229;SDS011;62589;12.568;99.958;2023-05-18T03:11:02;6.78;;;4.93;;
74229;SDS011;62589;12.568;99.958;2023-05-18T03:13:28;9.70;;;5.45;;
74229;SDS011;62589;12.568;99.958;2023-05-18T03:15:55;7.78;;;5.30;;
74229;SDS011;62589;12.568;99.958;2023-05-18T03:18:21;8.35;;;6.38;;
74229;SDS011;62589;12.568;99.958;2023-05-18T03:20:49;9.73;;;6.82;;
74229;SDS011;62589;12.568;99.958;2023-05-18T03:23:16;11.05;;;7.57;;
74229;SDS011;62589;12.568;99.958;2023-05-18T03:25:44;8.73;;;6.47;;
74229;SDS011;62589;12.568;99.958;2023-05-18T03:28:10;8.18;;;7.32;;
74229;SDS011;62589;12.568;99.958;2023-05-18T03:30:37;11.10;;;7.85;;
74229;SDS011;62589;12.568;99.958;2023-05-18T03:33:03;11.80;;;6.40;;
74229;SDS011;62589;12.568;99.958;2023-05-18T03:35:30;11.20;;;6.53;;
74229;SDS011;62589;12.568;99.958;2023-05-18T03:37:56;7.22;;;5.55;;
74229;SDS011;62589;12.568;99.958;2023-05-18T03:40:23;10.18;;;6.45;;
74229;SDS011;62589;12.568;99.958;2023-05-18T03:42:49;8.50;;;5.80;;
74229;SDS011;62589;12.568;99.958;2023-05-18T03:45:16;11.15;;;6.40;;
74229;SDS011;62589;12.568;99.958;2023-05-18T03:47:43;9.82;;;6.50;;
74229;SDS011;62589;12.568;99.958;2023-05-18T03:50:10;11.13;;;5.95;;
74229;SDS011;62589;12.568;99.958;2023-05-18T03:52:38;7.47;;;5.78;;
74229;SDS011;62589;12.568;99.958;2023-05-18T03:55:05;9.13;;;6.10;;
74229;SDS011;62589;12.568;99.958;2023-05-18T03:57:32;12.05;;;6.82;;
74229;SDS011;62589;12.568;99.958;2023-05-18T03:59:59;10.50;;;6.80;;
74229;SDS011;62589;12.568;99.958;2023-05-18T04:02:25;10.05;;;6.55;;
74229;SDS011;62589;12.568;99.958;2023-05-18T04:04:52;10.55;;;6.55;;
74229;SDS011;62589;12.568;99.958;2023-05-18T04:07:18;8.55;;;6.55;;
74229;SDS011;62589;12.568;99.958;2023-05-18T04:09:49;11.88;;;6.82;;
74229;SDS011;62589;12.568;99.958;2023-05-18T04:12:16;12.50;;;6.93;;
74229;SDS011;62589;12.568;99.958;2023-05-18T04:14:43;11.68;;;7.18;;
74229;SDS011;62589;12.568;99.958;2023-05-18T04:17:17;10.55;;;6.93;;
74229;SDS011;62589;12.568;99.958;2023-05-18T04:19:48;12.05;;;7.32;;
74229;SDS011;62589;12.568;99.958;2023-05-18T04:22:15;11.88;;;7.38;;
74229;SDS011;62589;12.568;99.958;2023-05-18T04:24:41;9.00;;;6.93;;
74229;SDS011;62589;12.568;99.958;2023-05-18T04:27:10;7.15;;;6.35;;
74229;SDS011;62589;12.568;99.958;2023-05-18T04:29:36;11.00;;;7.13;;
74229;SDS011;62589;12.568;99.958;2023-05-18T04:32:05;10.98;;;6.65;;
74229;SDS011;62589;12.568;99.958;2023-05-18T04:34:33;10.88;;;7.07;;
74229;SDS011;62589;12.568;99.958;2023-05-18T04:37:03;11.60;;;7.32;;
74229;SDS011;62589;12.568;99.958;2023-05-18T04:39:30;11.90;;;7.47;;
74229;SDS011;62589;12.568;99.958;2023-05-18T04:41:58;13.82;;;7.10;;
74229;SDS011;62589;12.568;99.958;2023-05-18T04:44:28;12.35;;;7.07;;
74229;SDS011;62589;12.568;99.958;2023-05-18T04:46:58;12.80;;;7.55;;
74229;SDS011;62589;12.568;99.958;2023-05-18T04:49:25;11.25;;;7.18;;
74229;SDS011;62589;12.568;99.958;2023-05-18T04:51:53;10.40;;;6.88;;
74229;SDS011;62589;12.568;99.958;2023-05-18T04:54:24;10.77;;;7.20;;
74229;SDS011;62589;12.568;99.958;2023-05-18T04:56:51;13.60;;;7.45;;
74229;SDS011;62589;12.568;99.958;2023-05-18T04:59:18;11.10;;;7.07;;
74229;SDS011;62589;12.568;99.958;2023-05-18T05:01:45;10.82;;;6.97;;
74229;SDS011;62589;12.568;99.958;2023-05-18T05:04:11;10.57;;;7.22;;
74229;SDS011;62589;12.568;99.958;2023-05-18T05:06:41;13.43;;;6.97;;
74229;SDS011;62589;12.568;99.958;2023-05-18T05:09:07;11.48;;;7.47;;
74229;SDS011;62589;12.568;99.958;2023-05-18T05:11:34;10.70;;;6.70;;
74229;SDS011;62589;12.568;99.958;2023-05-18T05:14:01;11.07;;;7.10;;
74229;SDS011;62589;12.568;99.958;2023-05-18T05:16:27;9.55;;;6.80;;
74229;SDS011;62589;12.568;99.958;2023-05-18T05:18:54;11.68;;;7.50;;
74229;SDS011;62589;12.568;99.958;2023-05-18T05:21:21;13.20;;;7.05;;
74229;SDS011;62589;12.568;99.958;2023-05-18T05:23:48;11.63;;;6.18;;
74229;SDS011;62589;12.568;99.958;2023-05-18T05:26:14;17.25;;;7.85;;
74229;SDS011;62589;12.568;99.958;2023-05-18T05:28:40;9.40;;;7.05;;
74229;SDS011;62589;12.568;99.958;2023-05-18T05:31:07;13.88;;;7.18;;
74229;SDS011;62589;12.568;99.958;2023-05-18T05:33:33;12.43;;;7.78;;
74229;SDS011;62589;12.568;99.958;2023-05-18T05:36:00;9.52;;;7.20;;
74229;SDS011;62589;12.568;99.958;2023-05-18T05:38:27;9.43;;;6.30;;
74229;SDS011;62589;12.568;99.958;2023-05-18T05:40:53;13.65;;;6.68;;
74229;SDS011;62589;12.568;99.958;2023-05-18T05:43:20;12.75;;;7.00;;
74229;SDS011;62589;12.568;99.958;2023-05-18T05:45:46;9.68;;;7.43;;
74229;SDS011;62589;12.568;99.958;2023-05-18T05:48:12;11.13;;;6.55;;
74229;SDS011;62589;12.568;99.958;2023-05-18T05:50:39;10.27;;;6.85;;
74229;SDS011;62589;12.568;99.958;2023-05-18T05:53:05;10.43;;;6.82;;
74229;SDS011;62589;12.568;99.958;2023-05-18T05:55:32;9.15;;;6.35;;
74229;SDS011;62589;12.568;99.958;2023-05-18T06:00:31;12.20;;;7.22;;
74229;SDS011;62589;12.568;99.958;2023-05-18T06:02:58;15.02;;;7.10;;
74229;SDS011;62589;12.568;99.958;2023-05-18T06:05:24;10.20;;;5.43;;
74229;SDS011;62589;12.568;99.958;2023-05-18T06:07:51;6.30;;;4.95;;
74229;SDS011;62589;12.568;99.958;2023-05-18T06:10:17;9.65;;;5.07;;
74229;SDS011;62589;12.568;99.958;2023-05-18T06:12:43;10.00;;;6.07;;
74229;SDS011;62589;12.568;99.958;2023-05-18T06:15:10;11.50;;;6.25;;
74229;SDS011;62589;12.568;99.958;2023-05-18T06:17:36;6.13;;;4.65;;
74229;SDS011;62589;12.568;99.958;2023-05-18T06:20:04;7.40;;;4.80;;
74229;SDS011;62589;12.568;99.958;2023-05-18T06:22:34;8.30;;;5.57;;
74229;SDS011;62589;12.568;99.958;2023-05-18T06:25:00;15.25;;;6.72;;
74229;SDS011;62589;12.568;99.958;2023-05-18T06:27:27;9.60;;;6.47;;
74229;SDS011;62589;12.568;99.958;2023-05-18T06:29:53;7.57;;;6.25;;
74229;SDS011;62589;12.568;99.958;2023-05-18T06:32:20;9.52;;;6.50;;
74229;SDS011;62589;12.568;99.958;2023-05-18T06:34:47;11.27;;;6.50;;
74229;SDS011;62589;12.568;99.958;2023-05-18T06:37:15;11.75;;;6.97;;
74229;SDS011;62589;12.568;99.958;2023-05-18T06:39:42;8.52;;;6.45;;
74229;SDS011;62589;12.568;99.958;2023-05-18T06:42:08;7.78;;;6.43;;
74229;SDS011;62589;12.568;99.958;2023-05-18T06:44:35;7.18;;;5.90;;
74229;SDS011;62589;12.568;99.958;2023-05-18T06:47:02;12.70;;;7.63;;
74229;SDS011;62589;12.568;99.958;2023-05-18T06:49:28;11.40;;;7.53;;
74229;SDS011;62589;12.568;99.958;2023-05-18T06:51:55;13.15;;;7.50;;
74229;SDS011;62589;12.568;99.958;2023-05-18T06:54:21;10.32;;;7.13;;
74229;SDS011;62589;12.568;99.958;2023-05-18T06:56:47;8.85;;;6.80;;
74229;SDS011;62589;12.568;99.958;2023-05-18T06:59:14;9.60;;;7.10;;
74229;SDS011;62589;12.568;99.958;2023-05-18T07:01:40;8.77;;;7.13;;
74229;SDS011;62589;12.568;99.958;2023-05-18T07:04:07;10.07;;;7.40;;
74229;SDS011;62589;12.568;99.958;2023-05-18T07:06:33;12.68;;;7.35;;
74229;SDS011;62589;12.568;99.958;2023-05-18T07:09:01;10.15;;;7.40;;
74229;SDS011;62589;12.568;99.958;2023-05-18T07:11:28;14.80;;;7.22;;
74229;SDS011;62589;12.568;99.958;2023-05-18T07:13:54;14.80;;;8.02;;
74229;SDS011;62589;12.568;99.958;2023-05-18T07:16:21;12.57;;;7.00;;
74229;SDS011;62589;12.568;99.958;2023-05-18T07:18:47;10.38;;;7.32;;
74229;SDS011;62589;12.568;99.958;2023-05-18T07:21:13;14.25;;;7.22;;
74229;SDS011;62589;12.568;99.958;2023-05-18T07:23:40;10.52;;;6.82;;
74229;SDS011;62589;12.568;99.958;2023-05-18T07:26:07;10.90;;;6.82;;
74229;SDS011;62589;12.568;99.958;2023-05-18T07:28:36;10.32;;;6.25;;
74229;SDS011;62589;12.568;99.958;2023-05-18T07:31:03;8.75;;;6.32;;
74229;SDS011;62589;12.568;99.958;2023-05-18T07:33:30;8.60;;;6.75;;
74229;SDS011;62589;12.568;99.958;2023-05-18T07:35:57;10.25;;;6.68;;
74229;SDS011;62589;12.568;99.958;2023-05-18T07:38:23;9.85;;;6.88;;
74229;SDS011;62589;12.568;99.958;2023-05-18T07:40:50;11.85;;;6.95;;
74229;SDS011;62589;12.568;99.958;2023-05-18T07:43:17;12.10;;;6.25;;
74229;SDS011;62589;12.568;99.958;2023-05-18T07:45:43;8.90;;;6.50;;
74229;SDS011;62589;12.568;99.958;2023-05-18T07:48:10;15.55;;;7.20;;
74229;SDS011;62589;12.568;99.958;2023-05-18T07:50:36;8.30;;;6.40;;
74229;SDS011;62589;12.568;99.958;2023-05-18T07:53:02;13.05;;;7.60;;
74229;SDS011;62589;12.568;99.958;2023-05-18T07:55:29;10.10;;;7.40;;
74229;SDS011;62589;12.568;99.958;2023-05-18T07:57:55;11.57;;;6.97;;
74229;SDS011;62589;12.568;99.958;2023-05-18T08:00:25;9.85;;;6.22;;
74229;SDS011;62589;12.568;99.958;2023-05-18T08:02:52;11.75;;;8.68;;
74229;SDS011;62589;12.568;99.958;2023-05-18T08:05:18;18.00;;;7.78;;
74229;SDS011;62589;12.568;99.958;2023-05-18T08:07:47;9.05;;;6.40;;
74229;SDS011;62589;12.568;99.958;2023-05-18T08:10:13;11.70;;;7.70;;
74229;SDS011;62589;12.568;99.958;2023-05-18T08:12:40;11.10;;;7.30;;
74229;SDS011;62589;12.568;99.958;2023-05-18T08:15:07;14.55;;;6.72;;
74229;SDS011;62589;12.568;99.958;2023-05-18T08:17:34;9.57;;;7.35;;
74229;SDS011;62589;12.568;99.958;2023-05-18T08:20:00;13.70;;;6.80;;
74229;SDS011;62589;12.568;99.958;2023-05-18T08:22:29;13.20;;;8.32;;
74229;SDS011;62589;12.568;99.958;2023-05-18T08:24:55;11.55;;;7.15;;
74229;SDS011;62589;12.568;99.958;2023-05-18T08:27:25;10.43;;;7.35;;
74229;SDS011;62589;12.568;99.958;2023-05-18T08:29:51;9.15;;;6.90;;
74229;SDS011;62589;12.568;99.958;2023-05-18T08:32:18;10.95;;;7.97;;
74229;SDS011;62589;12.568;99.958;2023-05-18T08:34:44;10.02;;;6.85;;
74229;SDS011;62589;12.568;99.958;2023-05-18T08:37:11;10.68;;;6.97;;
74229;SDS011;62589;12.568;99.958;2023-05-18T08:39:37;14.32;;;7.13;;
74229;SDS011;62589;12.568;99.958;2023-05-18T08:42:13;9.23;;;6.75;;
74229;SDS011;62589;12.568;99.958;2023-05-18T08:47:38;9.68;;;7.03;;
74229;SDS011;62589;12.568;99.958;2023-05-18T08:50:05;11.73;;;7.00;;
74229;SDS011;62589;12.568;99.958;2023-05-18T08:52:40;9.57;;;6.53;;
74229;SDS011;62589;12.568;99.958;2023-05-18T08:55:11;10.05;;;6.82;;
74229;SDS011;62589;12.568;99.958;2023-05-18T08:57:40;10.35;;;6.28;;
74229;SDS011;62589;12.568;99.958;2023-05-18T09:00:11;12.88;;;7.15;;
74229;SDS011;62589;12.568;99.958;2023-05-18T09:02:38;11.25;;;6.63;;
74229;SDS011;62589;12.568;99.958;2023-05-18T09:05:06;11.43;;;6.60;;
74229;SDS011;62589;12.568;99.958;2023-05-18T09:07:34;10.23;;;6.75;;
74229;SDS011;62589;12.568;99.958;2023-05-18T09:10:03;12.02;;;6.90;;
74229;SDS011;62589;12.568;99.958;2023-05-18T09:12:30;10.38;;;6.85;;
74229;SDS011;62589;12.568;99.958;2023-05-18T09:14:58;14.88;;;7.68;;
74229;SDS011;62589;12.568;99.958;2023-05-18T09:17:25;11.38;;;7.18;;
74229;SDS011;62589;12.568;99.958;2023-05-18T09:19:51;14.57;;;7.40;;
74229;SDS011;62589;12.568;99.958;2023-05-18T09:22:18;11.23;;;6.20;;
74229;SDS011;62589;12.568;99.958;2023-05-18T09:24:45;13.32;;;7.32;;
74229;SDS011;62589;12.568;99.958;2023-05-18T09:27:11;12.55;;;7.57;;
74229;SDS011;62589;12.568;99.958;2023-05-18T09:29:50;13.15;;;8.00;;
74229;SDS011;62589;12.568;99.958;2023-05-18T09:32:18;9.57;;;6.93;;
74229;SDS011;62589;12.568;99.958;2023-05-18T09:34:46;11.13;;;7.43;;
74229;SDS011;62589;12.568;99.958;2023-05-18T09:37:19;10.32;;;6.97;;
74229;SDS011;62589;12.568;99.958;2023-05-18T09:39:56;15.57;;;7.10;;
74229;SDS011;62589;12.568;99.958;2023-05-18T09:42:41;15.13;;;7.65;;
74229;SDS011;62589;12.568;99.958;2023-05-18T09:45:19;14.98;;;8.32;;
74229;SDS011;62589;12.568;99.958;2023-05-18T09:47:48;15.23;;;8.15;;
74229;SDS011;62589;12.568;99.958;2023-05-18T09:50:22;17.40;;;8.60;;
74229;SDS011;62589;12.568;99.958;2023-05-18T09:52:49;14.73;;;8.35;;
74229;SDS011;62589;12.568;99.958;2023-05-18T09:55:16;13.57;;;8.02;;
74229;SDS011;62589;12.568;99.958;2023-05-18T09:57:44;12.10;;;7.03;;
74229;SDS011;62589;12.568;99.958;2023-05-18T10:00:16;15.93;;;6.78;;
74229;SDS011;62589;12.568;99.958;2023-05-18T10:02:44;8.30;;;6.43;;
74229;SDS011;62589;12.568;99.958;2023-05-18T10:07:59;8.55;;;6.10;;
74229;SDS011;62589;12.568;99.958;2023-05-18T10:10:27;11.05;;;5.75;;
74229;SDS011;62589;12.568;99.958;2023-05-18T10:12:56;12.18;;;6.28;;
74229;SDS011;62589;12.568;99.958;2023-05-18T10:15:23;9.18;;;5.65;;
74229;SDS011;62589;12.568;99.958;2023-05-18T10:17:51;8.07;;;5.63;;
74229;SDS011;62589;12.568;99.958;2023-05-18T10:20:21;9.55;;;5.63;;
74229;SDS011;62589;12.568;99.958;2023-05-18T10:22:51;8.20;;;6.30;;
74229;SDS011;62589;12.568;99.958;2023-05-18T10:25:19;10.40;;;6.70;;
74229;SDS011;62589;12.568;99.958;2023-05-18T10:27:48;8.75;;;5.97;;
74229;SDS011;62589;12.568;99.958;2023-05-18T10:30:20;10.45;;;5.35;;
74229;SDS011;62589;12.568;99.958;2023-05-18T10:32:47;9.48;;;5.82;;
74229;SDS011;62589;12.568;99.958;2023-05-18T10:35:14;6.55;;;5.40;;
74229;SDS011;62589;12.568;99.958;2023-05-18T10:37:45;7.53;;;5.85;;
74229;SDS011;62589;12.568;99.958;2023-05-18T10:40:12;10.77;;;6.57;;
74229;SDS011;62589;12.568;99.958;2023-05-18T10:42:40;8.95;;;5.72;;
74229;SDS011;62589;12.568;99.958;2023-05-18T10:45:08;7.20;;;6.07;;
74229;SDS011;62589;12.568;99.958;2023-05-18T10:47:35;13.43;;;8.40;;
74229;SDS011;62589;12.568;99.958;2023-05-18T10:50:07;14.98;;;8.60;;
74229;SDS011;62589;12.568;99.958;2023-05-18T10:52:35;14.80;;;7.95;;
74229;SDS011;62589;12.568;99.958;2023-05-18T10:55:02;13.32;;;7.50;;
74229;SDS011;62589;12.568;99.958;2023-05-18T10:57:32;13.48;;;7.65;;
74229;SDS011;62589;12.568;99.958;2023-05-18T11:00:03;10.17;;;7.13;;
74229;SDS011;62589;12.568;99.958;2023-05-18T11:02:33;11.07;;;7.93;;
74229;SDS011;62589;12.568;99.958;2023-05-18T11:05:03;10.50;;;6.97;;
74229;SDS011;62589;12.568;99.958;2023-05-18T11:07:31;9.90;;;6.72;;
74229;SDS011;62589;12.568;99.958;2023-05-18T11:09:59;11.55;;;7.20;;
74229;SDS011;62589;12.568;99.958;2023-05-18T11:12:27;12.80;;;8.18;;
74229;SDS011;62589;12.568;99.958;2023-05-18T11:14:59;12.63;;;6.75;;
74229;SDS011;62589;12.568;99.958;2023-05-18T11:17:29;12.20;;;7.45;;
74229;SDS011;62589;12.568;99.958;2023-05-18T11:28:16;8.90;;;6.63;;
74229;SDS011;62589;12.568;99.958;2023-05-18T11:30:48;8.60;;;5.82;;
74229;SDS011;62589;12.568;99.958;2023-05-18T11:33:28;9.85;;;5.85;;
74229;SDS011;62589;12.568;99.958;2023-05-18T11:36:04;7.68;;;5.90;;
74229;SDS011;62589;12.568;99.958;2023-05-18T11:38:46;9.65;;;6.13;;
74229;SDS011;62589;12.568;99.958;2023-05-18T11:41:31;7.00;;;5.70;;
74229;SDS011;62589;12.568;99.958;2023-05-18T11:44:02;9.48;;;6.45;;
74229;SDS011;62589;12.568;99.958;2023-05-18T11:46:33;8.70;;;5.90;;
74229;SDS011;62589;12.568;99.958;2023-05-18T11:49:08;9.45;;;5.90;;
74229;SDS011;62589;12.568;99.958;2023-05-18T11:54:23;10.90;;;6.18;;
74229;SDS011;62589;12.568;99.958;2023-05-18T11:56:53;8.57;;;5.53;;
74229;SDS011;62589;12.568;99.958;2023-05-18T12:02:02;7.05;;;5.63;;
74229;SDS011;62589;12.568;99.958;2023-05-18T12:04:29;13.55;;;6.50;;
74229;SDS011;62589;12.568;99.958;2023-05-18T12:06:58;12.65;;;6.35;;
74229;SDS011;62589;12.568;99.958;2023-05-18T12:09:29;8.85;;;6.32;;
74229;SDS011;62589;12.568;99.958;2023-05-18T12:11:56;8.90;;;6.13;;
74229;SDS011;62589;12.568;99.958;2023-05-18T12:14:22;8.77;;;5.82;;
74229;SDS011;62589;12.568;99.958;2023-05-18T12:16:49;6.28;;;5.55;;
74229;SDS011;62589;12.568;99.958;2023-05-18T12:19:16;7.75;;;6.28;;
74229;SDS011;62589;12.568;99.958;2023-05-18T12:21:44;9.57;;;6.43;;
74229;SDS011;62589;12.568;99.958;2023-05-18T12:24:11;10.25;;;5.93;;
74229;SDS011;62589;12.568;99.958;2023-05-18T12:26:37;8.15;;;5.97;;
74229;SDS011;62589;12.568;99.958;2023-05-18T12:29:05;14.60;;;6.68;;
74229;SDS011;62589;12.568;99.958;2023-05-18T12:31:32;8.38;;;6.53;;
74229;SDS011;62589;12.568;99.958;2023-05-18T12:34:00;9.10;;;6.45;;
74229;SDS011;62589;12.568;99.958;2023-05-18T12:36:28;12.45;;;6.72;;
74229;SDS011;62589;12.568;99.958;2023-05-18T12:38:54;7.47;;;6.35;;
74229;SDS011;62589;12.568;99.958;2023-05-18T12:41:24;12.50;;;7.00;;
74229;SDS011;62589;12.568;99.958;2023-05-18T12:43:51;11.48;;;7.53;;
74229;SDS011;62589;12.568;99.958;2023-05-18T12:46:19;10.05;;;6.68;;
74229;SDS011;62589;12.568;99.958;2023-05-18T12:48:55;11.50;;;7.35;;
74229;SDS011;62589;12.568;99.958;2023-05-18T12:51:23;11.10;;;7.65;;
74229;SDS011;62589;12.568;99.958;2023-05-18T12:53:55;12.52;;;7.80;;
74229;SDS011;62589;12.568;99.958;2023-05-18T12:56:21;14.35;;;7.88;;
74229;SDS011;62589;12.568;99.958;2023-05-18T12:58:58;13.52;;;8.30;;
74229;SDS011;62589;12.568;99.958;2023-05-18T13:01:39;14.18;;;8.30;;
74229;SDS011;62589;12.568;99.958;2023-05-18T13:04:09;11.82;;;8.00;;
74229;SDS011;62589;12.568;99.958;2023-05-18T13:06:37;14.98;;;7.85;;
74229;SDS011;62589;12.568;99.958;2023-05-18T13:09:07;14.35;;;7.97;;
74229;SDS011;62589;12.568;99.958;2023-05-18T13:11:37;11.18;;;7.50;;
74229;SDS011;62589;12.568;99.958;2023-05-18T13:14:04;12.18;;;7.28;;
74229;SDS011;62589;12.568;99.958;2023-05-18T13:16:33;16.40;;;8.07;;
74229;SDS011;62589;12.568;99.958;2023-05-18T13:19:03;12.07;;;7.25;;
74229;SDS011;62589;12.568;99.958;2023-05-18T13:21:31;13.95;;;7.80;;
74229;SDS011;62589;12.568;99.958;2023-05-18T13:23:59;15.13;;;7.63;;
74229;SDS011;62589;12.568;99.958;2023-05-18T13:26:25;10.73;;;7.47;;
74229;SDS011;62589;12.568;99.958;2023-05-18T13:28:52;12.60;;;7.43;;
74229;SDS011;62589;12.568;99.958;2023-05-18T13:31:21;8.90;;;6.82;;
74229;SDS011;62589;12.568;99.958;2023-05-18T13:33:48;14.60;;;7.30;;
74229;SDS011;62589;12.568;99.958;2023-05-18T13:36:15;10.88;;;7.28;;
74229;SDS011;62589;12.568;99.958;2023-05-18T13:38:42;15.50;;;6.70;;
74229;SDS011;62589;12.568;99.958;2023-05-18T13:41:09;8.77;;;6.43;;
74229;SDS011;62589;12.568;99.958;2023-05-18T13:43:39;9.73;;;6.70;;
74229;SDS011;62589;12.568;99.958;2023-05-18T13:46:09;9.57;;;6.70;;
74229;SDS011;62589;12.568;99.958;2023-05-18T13:48:36;10.40;;;6.70;;
74229;SDS011;62589;12.568;99.958;2023-05-18T13:51:02;11.30;;;6.38;;
74229;SDS011;62589;12.568;99.958;2023-05-18T13:53:29;13.23;;;7.13;;
74229;SDS011;62589;12.568;99.958;2023-05-18T13:55:55;8.55;;;6.60;;
74229;SDS011;62589;12.568;99.958;2023-05-18T13:58:22;12.88;;;6.55;;
74229;SDS011;62589;12.568;99.958;2023-05-18T14:00:48;9.30;;;6.22;;
74229;SDS011;62589;12.568;99.958;2023-05-18T14:03:15;12.07;;;6.82;;
74229;SDS011;62589;12.568;99.958;2023-05-18T14:05:44;13.45;;;7.38;;
74229;SDS011;62589;12.568;99.958;2023-05-18T14:08:11;8.95;;;6.28;;
74229;SDS011;62589;12.568;99.958;2023-05-18T14:10:37;13.23;;;6.55;;
74229;SDS011;62589;12.568;99.958;2023-05-18T14:13:04;12.77;;;7.38;;
74229;SDS011;62589;12.568;99.958;2023-05-18T14:15:32;8.85;;;7.03;;
74229;SDS011;62589;12.568;99.958;2023-05-18T14:17:59;12.05;;;7.30;;
74229;SDS011;62589;12.568;99.958;2023-05-18T14:20:25;14.88;;;7.68;;
74229;SDS011;62589;12.568;99.958;2023-05-18T14:22:52;11.02;;;7.38;;
74229;SDS011;62589;12.568;99.958;2023-05-18T14:25:18;12.02;;;7.43;;
74229;SDS011;62589;12.568;99.958;2023-05-18T14:27:45;15.10;;;8.23;;
74229;SDS011;62589;12.568;99.958;2023-05-18T14:30:11;12.65;;;8.13;;
74229;SDS011;62589;12.568;99.958;2023-05-18T14:32:38;15.43;;;8.50;;
74229;SDS011;62589;12.568;99.958;2023-05-18T14:35:05;14.45;;;8.30;;
74229;SDS011;62589;12.568;99.958;2023-05-18T14:37:31;12.77;;;8.85;;
74229;SDS011;62589;12.568;99.958;2023-05-18T14:39:58;17.95;;;9.13;;
74229;SDS011;62589;12.568;99.958;2023-05-18T14:42:24;15.40;;;8.90;;
74229;SDS011;62589;12.568;99.958;2023-05-18T14:44:51;12.73;;;8.07;;
74229;SDS011;62589;12.568;99.958;2023-05-18T14:47:17;18.20;;;9.80;;
74229;SDS011;62589;12.568;99.958;2023-05-18T14:49:44;13.50;;;8.45;;
74229;SDS011;62589;12.568;99.958;2023-05-18T14:52:10;13.45;;;8.23;;
74229;SDS011;62589;12.568;99.958;2023-05-18T14:54:37;10.52;;;7.63;;